Time;durP1;ratioP1;P1;durP2;ratioP2;P2;SDS_P1;SDS_P2;PMS_P1;PMS_P2;Temp;Humidity;BMP_temperature;BMP_pressure;BME280_temperature;BME280_humidity;BME280_pressure;Samples;Min_cycle;Max_cycle;Signal;HPM_P1;HPM_P2
2023/01/02 00:00:54;;;;;;;9.73;6.55;;;8.50;83.20;;;;;;4981070;28;20065;-59
2023/01/02 00:03:20;;;;;;;12.27;6.78;;;8.50;82.90;;;;;;4982706;28;20027;-62
2023/01/02 00:05:46;;;;;;;9.93;6.80;;;8.50;82.90;;;;;;4984115;28;20520;-61
2023/01/02 00:08:11;;;;;;;10.07;7.32;;;8.50;83.50;;;;;;4977779;28;20129;-62
2023/01/02 00:10:37;;;;;;;9.60;7.13;;;8.50;82.60;;;;;;4977135;28;20050;-61
2023/01/02 00:13:02;;;;;;;12.57;7.25;;;8.40;82.40;;;;;;4978789;28;20034;-61
2023/01/02 00:15:28;;;;;;;12.93;7.32;;;8.40;82.40;;;;;;4981293;28;20039;-60
2023/01/02 00:17:54;;;;;;;9.30;6.40;;;8.40;82.40;;;;;;4973878;28;20605;-60
2023/01/02 00:20:19;;;;;;;8.77;6.72;;;8.40;82.30;;;;;;4980774;28;20038;-60
2023/01/02 00:22:45;;;;;;;7.88;6.20;;;8.40;82.20;;;;;;4981985;28;20060;-61
2023/01/02 00:25:11;;;;;;;9.27;6.85;;;8.30;82.20;;;;;;4982044;28;20096;-61
2023/01/02 00:27:36;;;;;;;11.68;7.10;;;8.30;82.20;;;;;;4983104;28;20038;-61
2023/01/02 00:30:02;;;;;;;10.20;7.10;;;8.30;82.20;;;;;;4982693;28;20137;-63
2023/01/02 00:32:28;;;;;;;10.02;6.55;;;8.30;82.20;;;;;;4984522;28;20526;-60
2023/01/02 00:34:53;;;;;;;10.70;7.30;;;8.30;82.20;;;;;;4984395;28;20045;-59
2023/01/02 00:37:19;;;;;;;10.63;7.38;;;8.30;82.10;;;;;;4981028;28;20486;-60
2023/01/02 00:39:44;;;;;;;10.90;7.45;;;8.30;82.00;;;;;;4981574;28;20066;-61
2023/01/02 00:42:10;;;;;;;11.63;7.43;;;8.30;81.90;;;;;;4983443;28;20046;-60
2023/01/02 00:44:35;;;;;;;11.43;7.18;;;8.30;81.90;;;;;;4982617;28;20036;-62
2023/01/02 00:47:01;;;;;;;10.27;7.25;;;8.30;81.80;;;;;;4982959;28;20097;-62
2023/01/02 00:49:27;;;;;;;9.32;6.47;;;8.30;82.60;;;;;;4970958;28;20036;-63
2023/01/02 00:51:52;;;;;;;8.45;6.50;;;8.20;81.70;;;;;;4973584;28;21132;-62
2023/01/02 00:54:18;;;;;;;9.80;6.72;;;8.20;82.10;;;;;;4979684;28;20030;-62
2023/01/02 00:56:43;;;;;;;8.50;6.20;;;8.20;82.30;;;;;;4981230;28;20053;-61
2023/01/02 00:59:09;;;;;;;8.65;5.97;;;8.10;82.40;;;;;;4980425;28;20033;-62
2023/01/02 01:01:34;;;;;;;8.30;5.78;;;8.20;82.60;;;;;;4979806;28;20045;-64
2023/01/02 01:04:00;;;;;;;9.27;6.05;;;8.10;82.50;;;;;;4987089;28;20118;-61
2023/01/02 01:06:26;;;;;;;11.32;6.90;;;8.10;82.50;;;;;;4986256;28;20038;-62
2023/01/02 01:08:51;;;;;;;12.38;7.00;;;8.10;82.40;;;;;;4988723;28;20030;-62
2023/01/02 01:11:17;;;;;;;12.73;7.47;;;8.10;82.20;;;;;;4979403;28;20502;-63
2023/01/02 01:13:43;;;;;;;11.95;7.70;;;8.10;82.30;;;;;;4983178;28;20451;-62
2023/01/02 01:16:17;;;;;;;12.60;7.38;;;8.00;82.30;;;;;;4967104;28;20043;-62
2023/01/02 01:18:43;;;;;;;13.63;7.40;;;8.00;82.60;;;;;;4984825;28;20034;-61
2023/01/02 01:21:14;;;;;;;12.77;7.43;;;8.00;82.60;;;;;;4979898;28;20503;-61
2023/01/02 01:23:41;;;;;;;9.52;6.75;;;7.90;82.60;;;;;;4974932;28;20039;-61
2023/01/02 01:26:09;;;;;;;10.20;6.95;;;7.90;82.70;;;;;;4975710;28;20034;-61
2023/01/02 01:28:35;;;;;;;12.55;6.90;;;7.90;82.90;;;;;;4975118;28;20042;-62
2023/01/02 01:31:09;;;;;;;13.55;6.82;;;7.90;83.10;;;;;;4978481;28;20041;-62
2023/01/02 01:33:35;;;;;;;10.75;6.80;;;7.80;83.40;;;;;;4980544;28;20085;-59
2023/01/02 01:36:07;;;;;;;9.27;5.78;;;7.80;83.30;;;;;;4980419;28;20125;-61
2023/01/02 01:38:33;;;;;;;7.95;5.60;;;7.80;83.60;;;;;;4975961;28;20129;-62
2023/01/02 01:40:58;;;;;;;7.82;5.40;;;7.80;83.60;;;;;;4976839;28;20030;-61
2023/01/02 01:43:50;;;;;;;8.20;5.43;;;7.80;83.50;;;;;;4981452;28;20464;-61
2023/01/02 01:46:37;;;;;;;6.88;4.50;;;7.80;84.10;;;;;;4983470;28;20272;-61
2023/01/02 01:49:20;;;;;;;6.85;4.95;;;7.80;84.00;;;;;;4981886;28;20068;-63
2023/01/02 01:51:51;;;;;;;6.05;4.70;;;7.80;83.80;;;;;;4983513;28;20034;-61
2023/01/02 01:54:23;;;;;;;7.18;4.82;;;7.80;83.60;;;;;;4977041;28;20046;-61
2023/01/02 01:56:54;;;;;;;7.38;4.57;;;7.80;83.60;;;;;;4973076;28;20517;-61
2023/01/02 01:59:20;;;;;;;6.60;4.70;;;7.80;83.60;;;;;;4980713;28;20054;-62
2023/01/02 02:01:48;;;;;;;4.50;3.97;;;7.80;83.40;;;;;;4980517;28;20038;-60
2023/01/02 02:04:15;;;;;;;7.85;4.45;;;7.80;83.60;;;;;;4982619;28;20041;-61
2023/01/02 02:06:40;;;;;;;5.50;4.10;;;7.80;84.00;;;;;;4984061;28;20902;-60
2023/01/02 02:09:23;;;;;;;4.68;3.40;;;7.80;84.10;;;;;;4981676;28;20121;-62
2023/01/02 02:11:49;;;;;;;5.22;3.78;;;7.80;84.60;;;;;;4977847;28;20034;-62
2023/01/02 02:14:14;;;;;;;4.85;3.25;;;7.80;84.30;;;;;;4982064;28;20096;-62
2023/01/02 02:16:58;;;;;;;3.67;2.80;;;7.80;84.20;;;;;;4981229;28;20062;-60
2023/01/02 02:19:42;;;;;;;5.50;4.13;;;7.90;84.70;;;;;;4979729;28;20047;-61
2023/01/02 02:22:36;;;;;;;5.95;3.45;;;7.80;84.20;;;;;;4973730;28;20114;-60
2023/01/02 02:25:08;;;;;;;4.65;3.05;;;7.90;84.40;;;;;;4972444;28;20034;-61
2023/01/02 02:27:57;;;;;;;4.57;3.20;;;7.90;84.60;;;;;;4973653;28;20286;-60
2023/01/02 02:30:26;;;;;;;4.55;4.03;;;7.80;84.70;;;;;;4974208;28;20058;-60
2023/01/02 02:33:01;;;;;;;5.82;4.30;;;7.80;84.80;;;;;;4974601;28;20550;-61
2023/01/02 02:35:48;;;;;;;5.82;4.10;;;7.80;85.00;;;;;;4976206;28;20056;-60
2023/01/02 02:38:22;;;;;;;6.15;4.45;;;7.80;84.70;;;;;;4982829;28;20042;-59
2023/01/02 02:41:28;;;;;;;7.07;4.25;;;7.80;84.60;;;;;;4975308;28;20089;-61
2023/01/02 02:44:25;;;;;;;6.63;3.75;;;7.80;84.60;;;;;;4977473;28;20035;-62
2023/01/02 02:47:12;;;;;;;6.57;3.90;;;7.80;84.50;;;;;;4974319;28;20029;-62
2023/01/02 02:50:01;;;;;;;6.72;4.50;;;7.80;84.30;;;;;;4978233;28;20031;-61
2023/01/02 02:52:50;;;;;;;5.30;3.83;;;7.80;84.20;;;;;;4977773;28;20498;-63
2023/01/02 02:55:21;;;;;;;4.82;3.85;;;7.80;84.50;;;;;;4980255;28;20069;-62
2023/01/02 02:57:49;;;;;;;5.63;3.97;;;7.80;84.30;;;;;;4976657;28;20538;-62
2023/01/02 03:00:18;;;;;;;5.38;4.03;;;7.80;84.30;;;;;;4976447;28;20407;-62
2023/01/02 03:02:44;;;;;;;6.00;4.25;;;7.80;84.60;;;;;;4976867;28;20501;-62
2023/01/02 03:05:15;;;;;;;6.72;4.60;;;7.80;85.00;;;;;;4979643;28;20046;-62
2023/01/02 03:07:43;;;;;;;6.53;4.55;;;7.80;85.00;;;;;;4984093;28;20498;-60
2023/01/02 03:10:15;;;;;;;8.18;4.68;;;7.80;85.20;;;;;;4979114;28;20052;-59
2023/01/02 03:13:20;;;;;;;6.47;4.32;;;7.80;85.70;;;;;;4978196;28;20126;-61
2023/01/02 03:16:13;;;;;;;5.88;4.05;;;7.80;86.50;;;;;;4981966;28;20038;-61
2023/01/02 03:18:48;;;;;;;6.00;4.35;;;7.80;86.20;;;;;;4974137;28;22579;-59
2023/01/02 03:21:40;;;;;;;7.47;4.85;;;7.80;85.70;;;;;;4973977;28;20038;-62
2023/01/02 03:24:09;;;;;;;7.30;4.60;;;7.80;85.50;;;;;;4973955;28;20354;-62
2023/01/02 03:26:38;;;;;;;8.38;5.10;;;7.80;85.30;;;;;;4972268;28;20034;-62
2023/01/02 03:29:11;;;;;;;9.02;5.05;;;7.80;85.60;;;;;;4978640;28;20038;-63
2023/01/02 03:31:40;;;;;;;10.98;4.78;;;7.80;86.00;;;;;;4981122;28;20379;-62
2023/01/02 03:34:11;;;;;;;7.30;5.07;;;7.80;85.80;;;;;;4976828;28;20034;-61
2023/01/02 03:36:40;;;;;;;6.03;4.53;;;7.90;85.70;;;;;;4973029;28;20391;-60
2023/01/02 03:39:14;;;;;;;7.28;5.03;;;7.90;85.50;;;;;;4977538;28;20691;-59
2023/01/02 03:42:08;;;;;;;5.97;4.40;;;7.90;85.50;;;;;;4976466;28;23088;-61
2023/01/02 03:44:45;;;;;;;8.17;5.10;;;7.90;85.30;;;;;;4971134;28;20553;-61
2023/01/02 03:47:27;;;;;;;8.80;5.10;;;7.90;85.00;;;;;;4972645;28;20603;-61
2023/01/02 03:49:55;;;;;;;8.05;4.80;;;7.90;85.20;;;;;;4973037;28;22727;-58
2023/01/02 03:52:21;;;;;;;9.63;5.40;;;7.90;85.00;;;;;;4980141;28;20082;-61
2023/01/02 03:54:47;;;;;;;7.70;5.15;;;7.90;85.00;;;;;;4969441;28;20121;-60
2023/01/02 03:57:29;;;;;;;6.88;4.63;;;7.90;85.00;;;;;;4979729;28;20042;-61
2023/01/02 04:00:08;;;;;;;5.68;4.72;;;7.90;85.00;;;;;;4978580;28;20056;-62
2023/01/02 04:03:03;;;;;;;6.10;4.30;;;7.90;85.00;;;;;;4976286;28;20096;-59
2023/01/02 04:05:37;;;;;;;8.60;4.65;;;7.80;85.00;;;;;;4981441;28;20312;-60
2023/01/02 04:08:27;;;;;;;6.28;4.18;;;7.80;84.60;;;;;;4980686;28;20125;-60
2023/01/02 04:10:56;;;;;;;6.72;3.80;;;7.80;84.80;;;;;;4973620;28;20055;-62
2023/01/02 04:13:28;;;;;;;5.25;4.10;;;7.80;84.40;;;;;;4981461;28;20037;-59
2023/01/02 04:15:54;;;;;;;6.70;4.35;;;7.80;84.40;;;;;;4983165;28;20057;-61
2023/01/02 04:18:28;;;;;;;6.75;4.03;;;7.80;84.50;;;;;;4975905;28;20132;-62
2023/01/02 04:21:00;;;;;;;4.55;3.75;;;7.80;84.60;;;;;;4977622;28;20038;-59
2023/01/02 04:23:45;;;;;;;8.88;4.55;;;7.70;84.80;;;;;;4972050;28;20426;-60
2023/01/02 04:26:33;;;;;;;7.55;3.92;;;7.70;85.00;;;;;;4972139;28;20499;-60
2023/01/02 04:28:59;;;;;;;6.13;3.78;;;7.70;84.90;;;;;;4972457;28;20034;-61
2023/01/02 04:31:46;;;;;;;7.00;4.03;;;7.70;84.80;;;;;;4971729;28;20041;-60
2023/01/02 04:34:16;;;;;;;7.72;5.38;;;7.70;85.10;;;;;;4982241;28;20035;-60
2023/01/02 04:36:41;;;;;;;6.25;4.65;;;7.70;84.70;;;;;;4975977;28;20033;-60
2023/01/02 04:39:08;;;;;;;7.60;4.45;;;7.70;84.50;;;;;;4971385;28;21811;-63
2023/01/02 04:41:34;;;;;;;5.60;4.07;;;7.70;84.80;;;;;;4976017;28;20042;-62
2023/01/02 04:44:00;;;;;;;6.13;4.38;;;7.70;84.90;;;;;;4979215;28;20030;-63
2023/01/02 04:46:27;;;;;;;5.00;3.80;;;7.60;84.90;;;;;;4978132;28;20045;-62
2023/01/02 04:48:53;;;;;;;6.78;4.13;;;7.60;84.80;;;;;;4976658;28;20066;-61
2023/01/02 04:51:20;;;;;;;5.75;3.92;;;7.60;84.90;;;;;;4973642;28;20058;-62
2023/01/02 04:53:52;;;;;;;4.57;3.85;;;7.60;85.00;;;;;;4969420;28;20035;-63
2023/01/02 04:56:18;;;;;;;6.10;3.50;;;7.60;85.60;;;;;;4975378;28;20131;-62
2023/01/02 04:58:45;;;;;;;6.13;3.55;;;7.60;85.50;;;;;;4973469;28;20035;-62
2023/01/02 05:01:13;;;;;;;5.00;3.65;;;7.70;85.70;;;;;;4971869;28;20105;-62
2023/01/02 05:03:40;;;;;;;4.93;3.45;;;7.70;85.80;;;;;;4978678;28;20568;-62
2023/01/02 05:06:06;;;;;;;5.22;3.53;;;7.70;85.80;;;;;;4978007;28;20089;-60
2023/01/02 05:08:32;;;;;;;6.95;4.55;;;7.70;85.80;;;;;;4980322;28;20034;-61
2023/01/02 05:11:03;;;;;;;9.65;4.90;;;7.80;85.90;;;;;;4972498;28;20065;-61
2023/01/02 05:13:29;;;;;;;6.70;4.57;;;7.80;85.90;;;;;;4981038;28;20097;-60
2023/01/02 05:15:55;;;;;;;5.43;4.47;;;7.80;85.60;;;;;;4976152;28;20039;-62
2023/01/02 05:18:21;;;;;;;5.75;4.68;;;7.80;85.20;;;;;;4969454;28;20038;-63
2023/01/02 05:20:47;;;;;;;6.35;4.65;;;7.80;85.10;;;;;;4967113;28;20042;-61
2023/01/02 05:25:57;;;;;;;6.18;4.40;;;7.80;84.70;;;;;;4970680;28;20038;-58
2023/01/02 05:28:22;;;;;;;7.30;4.65;;;7.80;84.50;;;;;;4967204;28;20038;-59
2023/01/02 05:30:48;;;;;;;4.75;3.85;;;7.80;84.40;;;;;;4976024;28;20481;-60
2023/01/02 05:33:14;;;;;;;5.43;4.20;;;7.80;84.10;;;;;;4975796;28;20185;-61
2023/01/02 05:35:40;;;;;;;5.68;4.13;;;7.70;83.90;;;;;;4977273;28;20527;-59
2023/01/02 05:38:05;;;;;;;6.28;4.30;;;7.70;84.00;;;;;;4970641;28;20134;-63
2023/01/02 05:40:31;;;;;;;7.57;4.70;;;7.60;83.80;;;;;;4976377;28;20038;-62
2023/01/02 05:42:57;;;;;;;8.07;5.78;;;7.60;83.90;;;;;;4974665;28;20062;-60
2023/01/02 05:45:23;;;;;;;11.23;7.45;;;7.50;83.80;;;;;;4975031;28;20046;-62
2023/01/02 05:47:49;;;;;;;10.55;7.05;;;7.50;83.80;;;;;;4976647;28;20122;-62
2023/01/02 05:50:15;;;;;;;10.32;7.28;;;7.50;84.00;;;;;;4973954;28;20061;-61
2023/01/02 05:52:40;;;;;;;12.68;7.78;;;7.40;84.10;;;;;;4973952;28;20414;-61
2023/01/02 05:55:06;;;;;;;10.48;6.32;;;7.40;84.20;;;;;;4975750;28;20050;-59
2023/01/02 05:57:33;;;;;;;10.02;5.32;;;7.30;84.30;;;;;;4976386;28;20045;-61
2023/01/02 05:59:59;;;;;;;10.55;5.40;;;7.30;84.40;;;;;;4981526;28;20042;-61
2023/01/02 06:02:25;;;;;;;9.40;6.85;;;7.30;85.00;;;;;;4975480;28;20288;-61
2023/01/02 06:04:50;;;;;;;7.18;5.25;;;7.30;85.20;;;;;;4982422;28;20100;-59
2023/01/02 06:07:16;;;;;;;5.50;3.90;;;7.30;85.30;;;;;;4980854;28;20042;-59
2023/01/02 06:09:42;;;;;;;4.95;3.90;;;7.30;85.50;;;;;;4976299;28;20049;-62
2023/01/02 06:12:07;;;;;;;4.32;3.38;;;7.30;85.70;;;;;;4975433;28;20036;-63
2023/01/02 06:14:33;;;;;;;5.43;3.28;;;7.20;85.60;;;;;;4981596;28;20521;-60
2023/01/02 06:16:58;;;;;;;4.72;3.65;;;7.20;85.50;;;;;;4979540;28;20043;-59
2023/01/02 06:19:24;;;;;;;4.35;3.40;;;7.20;85.40;;;;;;4981758;28;20034;-62
2023/01/02 06:21:49;;;;;;;6.22;4.00;;;7.30;85.70;;;;;;4983636;28;20027;-59
2023/01/02 06:24:15;;;;;;;4.72;3.53;;;7.30;85.70;;;;;;4975787;28;20302;-59
2023/01/02 06:26:40;;;;;;;6.55;4.40;;;7.30;85.70;;;;;;4979793;28;20042;-61
2023/01/02 06:29:07;;;;;;;10.77;5.32;;;7.20;85.70;;;;;;4977749;28;20565;-61
2023/01/02 06:31:33;;;;;;;9.63;5.70;;;7.30;85.70;;;;;;4972168;28;20062;-60
2023/01/02 06:34:00;;;;;;;11.15;5.75;;;7.30;85.50;;;;;;4973675;28;20146;-60
2023/01/02 06:36:29;;;;;;;8.70;4.93;;;7.20;85.30;;;;;;4976589;28;20038;-61
2023/01/02 06:38:55;;;;;;;6.50;5.00;;;7.20;85.30;;;;;;4974338;28;20409;-61
2023/01/02 06:41:21;;;;;;;9.02;5.25;;;7.20;85.30;;;;;;4972854;28;20494;-62
2023/01/02 06:43:48;;;;;;;12.63;5.00;;;7.20;85.40;;;;;;4980903;28;20041;-62
2023/01/02 06:46:16;;;;;;;8.48;4.90;;;7.20;85.30;;;;;;4976771;28;20069;-62
2023/01/02 06:48:42;;;;;;;7.28;5.05;;;7.20;85.30;;;;;;4977782;28;20513;-63
2023/01/02 06:51:10;;;;;;;10.20;5.35;;;7.20;85.30;;;;;;4973330;28;20038;-62
2023/01/02 06:53:39;;;;;;;7.93;5.05;;;7.20;85.40;;;;;;4969659;28;20112;-62
2023/01/02 06:56:05;;;;;;;9.63;5.28;;;7.20;85.30;;;;;;4980213;28;20581;-62
2023/01/02 06:58:33;;;;;;;9.27;5.25;;;7.20;85.20;;;;;;4974752;28;20047;-63
2023/01/02 07:01:10;;;;;;;8.60;4.93;;;7.20;85.30;;;;;;4973303;28;20125;-59
2023/01/02 07:03:35;;;;;;;5.10;4.05;;;7.20;85.30;;;;;;4981235;28;20035;-62
2023/01/02 07:06:04;;;;;;;5.50;3.85;;;7.20;85.30;;;;;;4982830;28;20041;-60
2023/01/02 07:08:30;;;;;;;6.22;3.75;;;7.20;85.40;;;;;;4978713;28;20039;-60
2023/01/02 07:11:06;;;;;;;9.85;4.93;;;7.20;85.50;;;;;;4979830;28;20189;-61
2023/01/02 07:13:31;;;;;;;9.77;5.70;;;7.20;85.80;;;;;;4979576;28;20031;-60
2023/01/02 07:16:04;;;;;;;10.45;5.72;;;7.20;85.70;;;;;;4980217;28;20150;-60
2023/01/02 07:18:30;;;;;;;10.25;5.60;;;7.20;85.70;;;;;;4985948;28;20034;-61
2023/01/02 07:20:56;;;;;;;12.18;7.55;;;7.20;85.70;;;;;;4987248;28;20026;-62
2023/01/02 07:23:22;;;;;;;9.00;6.00;;;7.20;85.70;;;;;;4982739;28;20320;-59
2023/01/02 07:25:55;;;;;;;8.05;5.35;;;7.20;86.00;;;;;;4985467;28;20026;-60
2023/01/02 07:28:22;;;;;;;11.23;5.70;;;7.30;86.20;;;;;;4982215;28;20046;-59
2023/01/02 07:30:47;;;;;;;7.85;4.95;;;7.30;86.20;;;;;;4982517;28;20034;-62
2023/01/02 07:33:13;;;;;;;7.50;4.50;;;7.30;86.80;;;;;;4982438;28;20112;-61
2023/01/02 07:35:39;;;;;;;11.60;6.78;;;7.30;87.10;;;;;;4983084;28;20038;-60
2023/01/02 07:38:05;;;;;;;12.30;6.78;;;7.30;87.30;;;;;;4984970;28;20034;-61
2023/01/02 07:40:31;;;;;;;12.65;6.00;;;7.40;87.30;;;;;;4984840;28;20069;-59
2023/01/02 07:42:57;;;;;;;12.57;7.45;;;7.40;87.30;;;;;;4986139;28;20295;-60
2023/01/02 07:45:23;;;;;;;14.75;8.13;;;7.40;87.50;;;;;;4986348;28;20402;-59
2023/01/02 07:47:48;;;;;;;10.82;7.38;;;7.50;87.60;;;;;;4978365;28;20038;-59
2023/01/02 07:50:14;;;;;;;25.45;14.55;;;7.50;87.60;;;;;;4985705;28;20038;-60
2023/01/02 07:52:41;;;;;;;29.70;15.15;;;7.50;87.60;;;;;;4974540;28;20553;-60
2023/01/02 07:55:07;;;;;;;28.70;15.98;;;7.60;87.60;;;;;;4967311;28;20503;-61
2023/01/02 07:57:33;;;;;;;30.63;15.95;;;7.60;87.40;;;;;;4969370;28;20043;-60
2023/01/02 07:59:58;;;;;;;32.60;17.17;;;7.70;87.60;;;;;;4965117;28;20045;-60
2023/01/02 08:02:24;;;;;;;30.83;15.98;;;7.70;87.40;;;;;;4974269;28;20568;-61
2023/01/02 08:04:49;;;;;;;29.90;15.27;;;7.70;87.40;;;;;;4974939;28;20038;-60
2023/01/02 08:07:15;;;;;;;23.65;13.63;;;7.80;87.40;;;;;;4966502;28;20050;-59
2023/01/02 08:09:40;;;;;;;24.80;14.07;;;7.90;87.50;;;;;;4964741;28;20046;-60
2023/01/02 08:12:06;;;;;;;21.05;12.23;;;7.90;87.60;;;;;;4967524;28;20034;-61
2023/01/02 08:14:32;;;;;;;19.20;11.05;;;7.90;87.80;;;;;;4974292;28;20042;-62
2023/01/02 08:16:57;;;;;;;16.30;8.77;;;8.00;88.80;;;;;;4971861;28;20053;-61
2023/01/02 08:19:23;;;;;;;11.98;7.07;;;8.00;88.00;;;;;;4974130;28;20514;-61
2023/01/02 08:21:48;;;;;;;9.18;5.85;;;8.10;88.20;;;;;;4975764;28;20035;-61
2023/01/02 08:24:14;;;;;;;8.02;5.40;;;8.10;88.30;;;;;;4974215;28;20041;-60
2023/01/02 08:26:39;;;;;;;7.07;4.65;;;8.30;88.50;;;;;;4975768;28;20030;-62
2023/01/02 08:29:07;;;;;;;8.98;4.78;;;8.30;88.40;;;;;;4971149;28;20037;-61
2023/01/02 08:31:33;;;;;;;7.15;4.40;;;8.40;88.50;;;;;;4974218;28;20038;-60
2023/01/02 08:33:59;;;;;;;6.60;4.28;;;8.50;88.50;;;;;;4966593;28;20031;-62
2023/01/02 08:36:24;;;;;;;8.02;4.75;;;8.60;88.50;;;;;;4965407;28;20046;-61
2023/01/02 08:38:50;;;;;;;6.72;4.03;;;8.60;88.30;;;;;;4964876;28;20088;-62
2023/01/02 08:41:36;;;;;;;8.48;4.63;;;8.70;88.30;;;;;;4964003;28;20038;-62
2023/01/02 08:44:02;;;;;;;5.88;3.90;;;8.80;88.60;;;;;;4975942;28;20038;-62
2023/01/02 08:46:29;;;;;;;7.40;3.70;;;8.90;88.20;;;;;;4966672;28;20042;-62
2023/01/02 08:48:55;;;;;;;7.75;3.88;;;9.00;88.30;;;;;;4969347;28;21038;-62
2023/01/02 08:51:21;;;;;;;6.05;3.53;;;9.00;88.30;;;;;;4964941;28;20107;-61
2023/01/02 08:53:46;;;;;;;8.75;4.07;;;9.10;88.10;;;;;;4979157;28;20125;-62
2023/01/02 08:56:29;;;;;;;4.13;3.50;;;9.20;88.10;;;;;;4976205;28;20133;-62
2023/01/02 08:59:01;;;;;;;4.28;3.28;;;9.20;88.50;;;;;;4973732;28;20434;-61
2023/01/02 09:01:29;;;;;;;4.72;3.20;;;9.30;88.40;;;;;;4967725;28;20170;-62
2023/01/02 09:03:55;;;;;;;3.70;2.97;;;9.40;89.10;;;;;;4970785;28;20082;-61
2023/01/02 09:06:24;;;;;;;4.38;2.92;;;9.40;88.10;;;;;;4975012;28;20071;-62
2023/01/02 09:08:54;;;;;;;6.43;3.10;;;9.50;88.00;;;;;;4975580;28;20507;-61
2023/01/02 09:11:23;;;;;;;4.10;3.20;;;9.60;87.90;;;;;;4972865;28;20053;-62
2023/01/02 09:13:49;;;;;;;4.20;3.00;;;9.60;87.80;;;;;;4982470;28;20034;-61
2023/01/02 09:16:14;;;;;;;3.72;2.90;;;9.70;87.60;;;;;;4970097;28;20435;-61
2023/01/02 09:18:40;;;;;;;5.70;2.90;;;9.70;87.40;;;;;;4968819;28;20145;-62
2023/01/02 09:21:06;;;;;;;5.13;2.95;;;9.80;87.40;;;;;;4971029;28;20406;-62
2023/01/02 09:23:32;;;;;;;5.13;2.90;;;9.90;87.60;;;;;;4972348;28;20039;-60
2023/01/02 09:26:00;;;;;;;4.72;2.55;;;9.90;87.70;;;;;;4969836;28;20038;-59
2023/01/02 09:28:27;;;;;;;5.28;3.08;;;10.00;87.70;;;;;;4966255;28;20042;-62
2023/01/02 09:30:53;;;;;;;4.78;3.03;;;10.10;87.70;;;;;;4972076;28;20038;-61
2023/01/02 09:33:18;;;;;;;3.88;2.42;;;10.10;87.60;;;;;;4978838;28;20050;-61
2023/01/02 09:35:44;;;;;;;3.80;2.72;;;10.20;87.60;;;;;;4968325;28;20049;-57
2023/01/02 09:38:10;;;;;;;4.07;2.42;;;10.20;87.40;;;;;;4969436;28;20035;-59
2023/01/02 09:40:50;;;;;;;5.18;3.53;;;10.30;87.30;;;;;;4974194;28;20076;-60
2023/01/02 09:43:31;;;;;;;5.68;4.40;;;10.40;87.10;;;;;;4976704;28;20034;-62
2023/01/02 09:46:01;;;;;;;8.00;4.47;;;10.40;86.80;;;;;;4980022;28;20481;-60
2023/01/02 09:48:32;;;;;;;6.60;4.47;;;10.50;86.60;;;;;;4967648;28;20046;-60
2023/01/02 09:50:59;;;;;;;10.55;5.70;;;10.60;86.60;;;;;;4975421;28;20038;-59
2023/01/02 09:53:25;;;;;;;7.72;4.32;;;10.60;87.40;;;;;;4973345;28;20054;-58
2023/01/02 09:56:17;;;;;;;7.22;4.40;;;10.70;86.60;;;;;;4972072;28;20050;-63
2023/01/02 09:58:53;;;;;;;8.45;3.92;;;10.80;86.60;;;;;;4979712;28;20066;-60
2023/01/02 10:01:23;;;;;;;7.43;4.60;;;10.80;86.40;;;;;;4973436;28;20154;-59
2023/01/02 10:03:53;;;;;;;10.75;6.25;;;10.90;87.00;;;;;;4968966;28;20130;-62
2023/01/02 10:06:38;;;;;;;7.85;5.13;;;10.90;86.00;;;;;;4973347;28;20445;-61
2023/01/02 10:09:28;;;;;;;;;;;11.00;85.80;;;;;;4972638;28;20045;-61
2023/01/02 10:12:05;;;;;;;7.90;5.22;;;11.10;85.80;;;;;;4969358;28;19922;-60
2023/01/02 10:14:33;;;;;;;7.88;4.95;;;11.10;85.30;;;;;;4967475;28;20109;-64
2023/01/02 10:17:00;;;;;;;8.70;5.53;;;11.10;85.30;;;;;;4972489;28;20069;-62
2023/01/02 10:19:43;;;;;;;7.03;4.80;;;11.20;85.30;;;;;;4980609;28;20041;-59
2023/01/02 10:22:14;;;;;;;7.15;4.15;;;11.20;85.00;;;;;;4978538;28;20118;-62
2023/01/02 10:25:01;;;;;;;7.13;5.18;;;11.30;86.00;;;;;;4973728;28;20033;-59
2023/01/02 10:27:38;;;;;;;8.57;6.43;;;11.30;85.30;;;;;;4966829;28;20449;-61
2023/01/02 10:30:13;;;;;;;9.70;7.38;;;11.40;85.30;;;;;;4975310;28;20449;-63
2023/01/02 10:32:46;;;;;;;9.50;7.18;;;11.50;85.10;;;;;;4978213;28;20112;-62
2023/01/02 10:35:31;;;;;;;9.75;7.07;;;11.50;84.90;;;;;;4967721;28;20055;-64
2023/01/02 10:37:57;;;;;;;10.32;7.03;;;11.60;84.80;;;;;;4977838;28;20039;-63
2023/01/02 10:40:24;;;;;;;10.50;7.40;;;11.60;84.70;;;;;;4978196;28;20478;-64
2023/01/02 10:42:53;;;;;;;11.20;6.80;;;11.60;84.80;;;;;;4983193;28;20316;-63
2023/01/02 10:45:19;;;;;;;9.55;5.82;;;11.60;84.60;;;;;;4976367;28;20039;-63
2023/01/02 10:47:45;;;;;;;9.35;5.97;;;11.70;84.50;;;;;;4976252;28;20047;-63
2023/01/02 10:50:19;;;;;;;7.82;4.80;;;11.70;84.40;;;;;;4977355;28;20081;-62
2023/01/02 10:52:52;;;;;;;7.60;4.03;;;11.80;83.80;;;;;;4971486;28;20442;-62
2023/01/02 10:55:39;;;;;;;7.38;3.20;;;11.80;83.60;;;;;;4976077;28;20129;-62
2023/01/02 10:58:21;;;;;;;6.70;3.42;;;11.90;81.20;;;;;;4977524;28;20057;-61
2023/01/02 11:00:49;;;;;;;5.22;2.60;;;12.00;81.90;;;;;;4976646;28;20127;-62
2023/01/02 11:03:21;;;;;;;5.50;2.25;;;12.10;81.40;;;;;;4983506;28;20034;-60
2023/01/02 11:05:49;;;;;;;4.03;1.92;;;12.10;80.80;;;;;;4983987;28;20038;-61
2023/01/02 11:08:20;;;;;;;5.63;1.77;;;12.20;80.10;;;;;;4984439;28;20136;-60
2023/01/02 11:10:47;;;;;;;4.53;1.77;;;12.30;79.10;;;;;;4978808;28;20054;-58
2023/01/02 11:13:16;;;;;;;8.13;1.73;;;12.40;79.20;;;;;;4984816;28;20046;-60
2023/01/02 11:15:59;;;;;;;5.03;2.03;;;12.50;78.90;;;;;;4983523;28;20047;-61
2023/01/02 11:18:29;;;;;;;4.30;2.30;;;12.60;77.70;;;;;;4986164;28;20039;-60
2023/01/02 11:21:02;;;;;;;4.47;1.75;;;12.70;78.10;;;;;;4984029;28;20038;-61
2023/01/02 11:23:36;;;;;;;2.53;1.65;;;12.70;78.00;;;;;;4984908;28;20039;-62
2023/01/02 11:26:03;;;;;;;4.40;1.83;;;12.80;77.10;;;;;;4985175;28;20026;-60
2023/01/02 11:28:33;;;;;;;5.47;2.00;;;12.80;77.10;;;;;;4979764;28;20085;-61
2023/01/02 11:31:11;;;;;;;2.95;1.40;;;12.90;76.50;;;;;;4982305;28;20031;-60
2023/01/02 11:33:37;;;;;;;5.20;1.60;;;13.00;74.90;;;;;;4982962;28;20061;-60
2023/01/02 11:36:03;;;;;;;4.53;1.50;;;13.00;75.60;;;;;;4984411;28;20038;-61
2023/01/02 11:38:50;;;;;;;5.15;1.50;;;13.10;75.60;;;;;;4984514;28;20031;-59
2023/01/02 11:41:24;;;;;;;4.07;1.60;;;13.10;73.70;;;;;;4981300;28;20046;-63
2023/01/02 11:43:58;;;;;;;4.55;1.73;;;13.20;74.60;;;;;;4984726;28;20038;-62
2023/01/02 11:46:34;;;;;;;4.15;1.50;;;13.30;73.30;;;;;;4979797;28;20521;-62
2023/01/02 11:49:14;;;;;;;6.40;1.83;;;13.30;72.50;;;;;;4983915;28;20042;-61
2023/01/02 11:51:41;;;;;;;5.05;1.90;;;13.30;70.80;;;;;;4982054;28;20533;-60
2023/01/02 11:54:18;;;;;;;4.82;1.88;;;13.40;73.00;;;;;;4982217;28;20065;-60
2023/01/02 11:56:44;;;;;;;5.20;2.30;;;13.40;72.30;;;;;;4981773;28;20097;-61
2023/01/02 11:59:43;;;;;;;5.13;2.15;;;13.40;72.70;;;;;;4981502;28;20062;-62
2023/01/02 12:02:39;;;;;;;6.18;2.45;;;13.40;71.80;;;;;;4982214;28;20034;-59
2023/01/02 12:05:13;;;;;;;;;;;13.40;71.50;;;;;;4982615;28;20035;-61
2023/01/02 12:07:38;;;;;;;7.68;2.55;;;13.40;71.50;;;;;;4985050;28;19917;-62
2023/01/02 12:10:19;;;;;;;9.43;2.00;;;13.40;72.80;;;;;;4982720;28;20038;-61
2023/01/02 12:13:17;;;;;;;2.88;1.83;;;13.40;72.80;;;;;;4977953;28;20228;-61
2023/01/02 12:16:07;;;;;;;6.15;1.60;;;13.40;71.30;;;;;;4972614;28;20035;-60
2023/01/02 12:18:50;;;;;;;7.38;1.67;;;13.40;71.80;;;;;;4974059;28;20403;-60
2023/01/02 12:21:41;;;;;;;2.75;1.77;;;13.40;70.70;;;;;;4980322;28;20030;-62
2023/01/02 12:24:26;;;;;;;7.68;2.00;;;13.40;69.80;;;;;;4979018;28;20552;-62
2023/01/02 12:27:14;;;;;;;3.47;1.65;;;13.40;70.90;;;;;;4979377;28;20122;-63
2023/01/02 12:29:48;;;;;;;7.50;2.17;;;13.40;69.30;;;;;;4983194;28;20034;-60
2023/01/02 12:32:32;;;;;;;6.03;1.63;;;13.40;70.00;;;;;;4981196;28;20043;-63
2023/01/02 12:35:22;;;;;;;9.02;2.38;;;13.40;70.40;;;;;;4982892;28;20035;-63
2023/01/02 12:37:52;;;;;;;6.68;1.90;;;13.50;70.00;;;;;;4980774;28;20567;-61
2023/01/02 12:40:43;;;;;;;5.85;1.88;;;13.50;70.60;;;;;;4981524;28;20519;-63
2023/01/02 12:43:25;;;;;;;4.05;1.85;;;13.50;70.20;;;;;;4980643;28;20042;-63
2023/01/02 12:46:11;;;;;;;5.72;1.98;;;13.50;70.60;;;;;;4982696;28;20038;-62
2023/01/02 12:49:07;;;;;;;5.35;1.85;;;13.50;70.80;;;;;;4983953;28;20069;-62
2023/01/02 12:51:53;;;;;;;8.02;2.35;;;13.50;69.70;;;;;;4983420;28;20502;-62
2023/01/02 12:54:49;;;;;;;7.18;2.45;;;13.50;69.70;;;;;;4985133;28;20120;-62
2023/01/02 12:57:27;;;;;;;4.35;2.00;;;13.50;69.40;;;;;;4984560;28;20066;-62
2023/01/02 13:00:00;;;;;;;4.00;1.80;;;13.50;70.00;;;;;;4984277;28;20052;-62
2023/01/02 13:02:44;;;;;;;2.63;1.50;;;13.60;69.90;;;;;;4987535;28;20042;-64
2023/01/02 13:05:19;;;;;;;3.50;2.00;;;13.60;70.50;;;;;;4983313;28;20035;-63
2023/01/02 13:07:47;;;;;;;3.33;1.70;;;13.60;70.20;;;;;;4981558;28;20054;-62
2023/01/02 13:10:17;;;;;;;7.70;2.20;;;13.60;70.60;;;;;;4983035;28;20039;-60
2023/01/02 13:12:44;;;;;;;3.95;1.80;;;13.60;70.20;;;;;;4977609;28;20033;-62
2023/01/02 13:15:21;;;;;;;7.47;2.15;;;13.60;70.50;;;;;;4980320;28;20046;-63
2023/01/02 13:17:49;;;;;;;4.57;1.88;;;13.70;69.70;;;;;;4979201;28;20126;-62